Time;durP1;ratioP1;P1;durP2;ratioP2;P2;SDS_P1;SDS_P2;PMS_P1;PMS_P2;Temp;Humidity;BMP_temperature;BMP_pressure;BME280_temperature;BME280_humidity;BME280_pressure;Samples;Min_cycle;Max_cycle;Signal;HPM_P1;HPM_P2
2023/08/18 00:00:17;;;;;;;2.50;2.30;;;18.20;99.90;;;;;;4987627;28;20624;-68
2023/08/18 00:02:46;;;;;;;2.43;2.43;;;18.20;99.90;;;;;;4986482;28;20553;-67
2023/08/18 00:05:12;;;;;;;2.23;2.13;;;18.20;99.90;;;;;;4984249;28;20561;-67
2023/08/18 00:07:41;;;;;;;1.80;1.70;;;18.20;99.90;;;;;;4986637;28;20465;-68
2023/08/18 00:10:10;;;;;;;1.70;1.70;;;18.20;99.90;;;;;;4983524;28;20958;-68
2023/08/18 00:12:36;;;;;;;2.27;2.27;;;18.20;99.90;;;;;;4988917;28;20493;-67
2023/08/18 00:15:04;;;;;;;1.90;1.90;;;18.20;99.90;;;;;;4988533;28;20545;-68
2023/08/18 00:17:31;;;;;;;2.07;2.07;;;18.30;99.90;;;;;;4988322;28;20470;-68
2023/08/18 00:20:00;;;;;;;2.30;2.20;;;18.30;99.90;;;;;;4988449;28;20830;-67
2023/08/18 00:22:28;;;;;;;2.53;2.43;;;18.30;99.90;;;;;;4984804;28;20829;-67
2023/08/18 00:24:55;;;;;;;2.40;2.40;;;18.40;99.90;;;;;;4983814;28;20846;-69
2023/08/18 00:27:23;;;;;;;2.50;2.40;;;18.30;99.90;;;;;;4984301;28;20467;-69
2023/08/18 00:29:50;;;;;;;2.40;2.40;;;18.40;99.90;;;;;;4987028;28;20501;-68
2023/08/18 00:32:17;;;;;;;2.30;2.30;;;18.30;99.90;;;;;;4988859;28;20458;-69
2023/08/18 00:34:44;;;;;;;2.93;2.83;;;18.30;99.90;;;;;;4985156;28;21004;-68
2023/08/18 00:37:15;;;;;;;2.37;2.27;;;18.30;99.90;;;;;;4988725;28;20458;-68
2023/08/18 00:39:42;;;;;;;6.00;2.63;;;18.20;99.90;;;;;;4989306;28;20459;-68
2023/08/18 00:42:10;;;;;;;2.30;2.30;;;18.20;99.90;;;;;;4984431;28;20466;-68
2023/08/18 00:44:37;;;;;;;2.87;2.77;;;18.20;99.90;;;;;;4987537;28;20472;-69
2023/08/18 00:47:05;;;;;;;2.17;2.10;;;18.10;99.90;;;;;;4983371;28;20525;-68
2023/08/18 00:49:32;;;;;;;2.50;2.50;;;18.10;99.90;;;;;;4983902;28;20932;-67
2023/08/18 00:52:00;;;;;;;5.40;5.10;;;18.20;99.90;;;;;;4988803;28;20825;-67
2023/08/18 00:54:30;;;;;;;2.10;2.10;;;18.20;99.90;;;;;;4977232;28;20487;-68
2023/08/18 00:56:57;;;;;;;2.30;2.30;;;18.20;99.90;;;;;;4967107;28;20534;-69
2023/08/18 00:59:26;;;;;;;2.53;2.53;;;18.30;99.90;;;;;;4967391;28;20823;-68
2023/08/18 01:01:53;;;;;;;4.03;3.83;;;18.30;99.90;;;;;;4964336;28;20471;-68
2023/08/18 01:04:20;;;;;;;3.90;3.70;;;18.20;99.90;;;;;;4964569;28;20464;-68
2023/08/18 01:06:47;;;;;;;2.57;2.47;;;18.20;99.90;;;;;;4968576;28;20459;-67
2023/08/18 01:09:14;;;;;;;2.30;2.30;;;18.20;99.90;;;;;;4967881;28;20495;-69
2023/08/18 01:11:55;;;;;;;2.60;2.60;;;18.20;99.90;;;;;;4967482;28;20468;-68
2023/08/18 01:14:29;;;;;;;2.20;2.20;;;18.20;99.90;;;;;;4961721;28;20486;-68
2023/08/18 01:17:02;;;;;;;3.60;3.50;;;18.20;99.90;;;;;;4965169;28;20991;-68
2023/08/18 01:19:29;;;;;;;2.70;2.60;;;18.20;99.90;;;;;;4965918;28;20479;-67
2023/08/18 01:21:58;;;;;;;2.43;2.40;;;18.30;99.90;;;;;;4967281;28;20474;-68
2023/08/18 01:24:26;;;;;;;2.70;2.60;;;18.30;99.90;;;;;;4967828;28;20470;-68
2023/08/18 01:26:54;;;;;;;4.37;4.17;;;18.20;99.90;;;;;;4968217;28;20471;-67
2023/08/18 01:29:23;;;;;;;1.90;1.90;;;18.20;99.90;;;;;;4966711;28;20487;-69
2023/08/18 01:31:55;;;;;;;3.30;3.20;;;18.20;99.90;;;;;;4968209;28;20838;-69
2023/08/18 01:34:24;;;;;;;2.30;2.20;;;18.10;99.90;;;;;;4964756;28;20455;-68
2023/08/18 01:36:52;;;;;;;2.47;2.37;;;18.20;99.90;;;;;;4965536;28;20562;-69
2023/08/18 01:39:23;;;;;;;4.43;4.10;;;18.20;99.90;;;;;;4969659;28;20974;-68
2023/08/18 01:41:52;;;;;;;3.43;3.00;;;18.30;99.90;;;;;;4970619;28;20455;-67
2023/08/18 01:44:20;;;;;;;5.57;5.20;;;18.30;99.90;;;;;;4969434;28;20845;-67
2023/08/18 01:46:47;;;;;;;2.63;2.53;;;18.20;99.90;;;;;;4975591;28;20464;-68
2023/08/18 01:49:14;;;;;;;2.93;2.83;;;18.20;99.90;;;;;;4969719;28;20494;-68
2023/08/18 01:51:42;;;;;;;4.33;3.93;;;18.20;99.90;;;;;;4971115;28;20874;-67
2023/08/18 01:54:10;;;;;;;4.20;2.80;;;18.20;99.90;;;;;;4972284;28;20537;-67
2023/08/18 01:56:37;;;;;;;13.17;5.63;;;18.20;99.90;;;;;;4969594;28;20467;-67
2023/08/18 01:59:06;;;;;;;3.43;3.30;;;18.20;99.90;;;;;;4972165;28;20538;-68
2023/08/18 02:01:32;;;;;;;6.40;5.90;;;18.10;99.90;;;;;;4967296;28;20474;-68
2023/08/18 02:03:59;;;;;;;2.40;2.20;;;18.10;99.90;;;;;;4972013;28;20479;-67
2023/08/18 02:06:26;;;;;;;3.77;3.47;;;18.10;99.90;;;;;;4970152;28;20451;-68
2023/08/18 02:08:53;;;;;;;9.30;4.70;;;18.00;99.90;;;;;;4970001;28;20490;-68
2023/08/18 02:11:22;;;;;;;3.53;3.20;;;18.10;99.90;;;;;;4971580;28;20458;-67
2023/08/18 02:13:49;;;;;;;1.80;1.70;;;18.20;99.90;;;;;;4968836;28;20827;-68
2023/08/18 02:16:18;;;;;;;2.00;1.90;;;18.20;99.90;;;;;;4972102;28;20530;-68
2023/08/18 02:18:47;;;;;;;6.37;5.90;;;18.10;99.90;;;;;;4971879;28;20973;-69
2023/08/18 02:21:15;;;;;;;4.90;4.37;;;18.10;99.90;;;;;;4969862;28;20472;-68
2023/08/18 02:23:42;;;;;;;5.57;3.50;;;18.10;99.90;;;;;;4970233;28;20470;-68
2023/08/18 02:26:09;;;;;;;5.47;3.67;;;18.10;99.90;;;;;;4966970;28;20499;-67
2023/08/18 02:28:36;;;;;;;7.57;3.50;;;18.10;99.90;;;;;;4971564;28;20463;-68
2023/08/18 02:31:05;;;;;;;2.93;2.73;;;18.10;99.90;;;;;;4971970;28;20471;-68
2023/08/18 02:33:34;;;;;;;10.40;3.80;;;18.20;99.90;;;;;;4969391;28;21155;-69
2023/08/18 02:36:02;;;;;;;16.67;3.80;;;18.10;99.90;;;;;;4968193;28;20471;-67
2023/08/18 02:38:31;;;;;;;15.63;6.93;;;18.10;99.90;;;;;;4971389;28;20467;-68
2023/08/18 02:40:58;;;;;;;2.63;2.53;;;18.10;99.90;;;;;;4969552;28;20970;-68
2023/08/18 02:43:27;;;;;;;2.53;2.43;;;18.20;99.90;;;;;;4966881;28;20559;-68
2023/08/18 02:45:57;;;;;;;2.70;2.50;;;18.20;99.90;;;;;;4972299;28;20847;-67
2023/08/18 02:48:24;;;;;;;6.10;5.50;;;18.30;99.90;;;;;;4970010;28;20555;-67
2023/08/18 02:51:02;;;;;;;3.00;2.90;;;18.30;99.90;;;;;;4966040;28;20838;-68
2023/08/18 02:53:29;;;;;;;2.60;2.43;;;18.20;99.90;;;;;;4971223;28;20996;-69
2023/08/18 02:55:56;;;;;;;4.30;4.00;;;18.20;99.90;;;;;;4970479;28;20464;-67
2023/08/18 02:58:23;;;;;;;2.90;2.70;;;18.20;99.90;;;;;;4968393;28;20475;-68
2023/08/18 03:00:49;;;;;;;7.80;3.90;;;18.20;99.90;;;;;;4968814;28;20471;-67
2023/08/18 03:03:16;;;;;;;3.83;2.97;;;18.10;99.90;;;;;;4970058;28;20464;-68
2023/08/18 03:05:44;;;;;;;2.77;2.57;;;18.10;99.90;;;;;;4970212;28;20467;-68
2023/08/18 03:08:13;;;;;;;10.13;3.83;;;18.20;99.90;;;;;;4967363;28;20464;-67
2023/08/18 03:10:41;;;;;;;2.23;2.13;;;18.30;99.90;;;;;;4970170;28;20495;-68
2023/08/18 03:13:08;;;;;;;2.50;2.13;;;18.20;99.90;;;;;;4967428;28;20582;-69
2023/08/18 03:15:41;;;;;;;3.13;2.93;;;18.30;99.90;;;;;;4967159;28;20470;-67
2023/08/18 03:18:09;;;;;;;4.73;4.27;;;18.40;99.90;;;;;;4976171;28;20546;-67
2023/08/18 03:20:35;;;;;;;8.17;3.40;;;18.50;99.90;;;;;;4967249;28;21077;-67
2023/08/18 03:23:03;;;;;;;2.20;2.10;;;18.30;99.90;;;;;;4970620;28;20464;-69
2023/08/18 03:25:32;;;;;;;3.30;2.53;;;18.40;99.90;;;;;;4970915;28;20468;-68
2023/08/18 03:27:59;;;;;;;3.07;2.93;;;18.50;99.90;;;;;;4970512;28;20789;-68
2023/08/18 03:30:25;;;;;;;5.57;5.17;;;18.50;99.90;;;;;;4967321;28;20495;-67
2023/08/18 03:32:55;;;;;;;2.30;2.20;;;18.50;99.90;;;;;;4961740;28;20483;-69
2023/08/18 03:35:23;;;;;;;4.43;4.23;;;18.50;99.90;;;;;;4971034;28;20463;-68
2023/08/18 03:37:51;;;;;;;3.43;3.20;;;18.60;99.90;;;;;;4970444;28;20459;-68
2023/08/18 03:40:17;;;;;;;2.10;2.00;;;18.60;99.90;;;;;;4970587;28;20808;-68
2023/08/18 03:42:46;;;;;;;2.40;2.20;;;18.60;99.90;;;;;;4969409;28;20467;-69
2023/08/18 03:45:13;;;;;;;7.03;3.77;;;18.60;99.90;;;;;;4966736;28;20463;-68
2023/08/18 03:47:41;;;;;;;6.37;4.77;;;18.60;99.90;;;;;;4969588;28;20459;-66
2023/08/18 03:50:09;;;;;;;3.23;3.07;;;18.40;99.90;;;;;;4969242;28;20841;-68
2023/08/18 03:52:36;;;;;;;4.90;4.60;;;18.30;99.90;;;;;;4963582;28;20816;-69
2023/08/18 03:55:03;;;;;;;3.83;3.20;;;18.30;99.90;;;;;;4985305;28;20482;-67
2023/08/18 03:57:31;;;;;;;2.37;2.27;;;18.40;99.90;;;;;;4989860;28;20486;-69
2023/08/18 03:59:59;;;;;;;4.83;4.53;;;18.30;99.90;;;;;;4989360;28;20937;-67
2023/08/18 04:02:27;;;;;;;1.90;1.80;;;18.30;99.90;;;;;;4988207;28;20474;-67
2023/08/18 04:04:54;;;;;;;4.20;2.80;;;18.30;99.90;;;;;;4985752;28;21101;-68
2023/08/18 04:07:21;;;;;;;2.63;2.53;;;18.20;99.90;;;;;;4987825;28;20462;-67
2023/08/18 04:09:48;;;;;;;1.70;1.60;;;18.10;99.90;;;;;;4989178;28;20490;-67
2023/08/18 04:12:14;;;;;;;5.13;3.13;;;18.10;99.90;;;;;;4986253;28;20880;-67
2023/08/18 04:14:41;;;;;;;4.13;3.40;;;18.10;99.90;;;;;;4989153;28;20529;-68
2023/08/18 04:17:09;;;;;;;1.63;1.53;;;18.10;99.90;;;;;;4990232;28;20970;-67
2023/08/18 04:19:36;;;;;;;1.90;1.80;;;18.10;99.90;;;;;;4989343;28;20856;-68
2023/08/18 04:22:03;;;;;;;2.87;2.77;;;18.10;99.90;;;;;;4989801;28;20822;-68
2023/08/18 04:24:30;;;;;;;3.77;3.30;;;18.20;99.90;;;;;;4975466;28;20467;-67
2023/08/18 04:26:59;;;;;;;4.53;4.13;;;18.20;99.90;;;;;;4985379;28;20481;-67
2023/08/18 04:29:26;;;;;;;3.03;2.83;;;18.20;99.90;;;;;;4989200;28;20522;-68
2023/08/18 04:31:53;;;;;;;2.17;2.07;;;18.20;99.90;;;;;;4989156;28;20474;-67
2023/08/18 04:34:22;;;;;;;3.03;2.73;;;18.30;99.90;;;;;;4985555;28;20466;-67
2023/08/18 04:36:48;;;;;;;3.03;2.83;;;18.30;99.90;;;;;;4984475;28;20950;-68
2023/08/18 04:39:16;;;;;;;4.93;2.63;;;18.20;99.90;;;;;;4989066;28;20470;-68
2023/08/18 04:41:43;;;;;;;2.10;2.00;;;18.10;99.90;;;;;;4987621;28;20568;-68
2023/08/18 04:44:10;;;;;;;2.90;2.60;;;18.10;99.90;;;;;;4985176;28;20840;-68
2023/08/18 04:46:37;;;;;;;4.50;4.30;;;18.10;99.90;;;;;;4992801;28;20489;-68
2023/08/18 04:49:04;;;;;;;3.40;3.30;;;18.20;99.90;;;;;;4984372;28;20509;-67
2023/08/18 04:51:32;;;;;;;2.70;2.50;;;18.20;99.90;;;;;;4985251;28;20541;-67
2023/08/18 04:54:00;;;;;;;1.40;1.33;;;18.20;99.90;;;;;;4987348;28;20490;-68
2023/08/18 04:56:26;;;;;;;1.70;1.60;;;18.20;99.90;;;;;;4985372;28;20502;-68
2023/08/18 04:58:54;;;;;;;1.60;1.50;;;18.20;99.90;;;;;;4988383;28;20462;-68
2023/08/18 05:01:21;;;;;;;2.50;2.40;;;18.30;99.90;;;;;;4987302;28;20462;-67
2023/08/18 05:03:48;;;;;;;2.60;2.50;;;18.40;99.90;;;;;;4981841;28;20557;-68
2023/08/18 05:06:15;;;;;;;2.50;2.40;;;18.40;99.90;;;;;;4983039;28;20458;-68
2023/08/18 05:08:44;;;;;;;1.47;1.47;;;18.50;99.90;;;;;;4983902;28;20467;-68
2023/08/18 05:11:12;;;;;;;1.87;1.87;;;18.40;99.90;;;;;;4984282;28;20848;-68
2023/08/18 05:13:40;;;;;;;3.03;2.83;;;18.60;99.90;;;;;;4982890;28;20986;-68
2023/08/18 05:16:07;;;;;;;2.50;2.40;;;18.60;99.90;;;;;;4992718;28;20513;-68
2023/08/18 05:18:34;;;;;;;1.90;1.80;;;18.70;99.90;;;;;;4988495;28;20505;-69
2023/08/18 05:21:02;;;;;;;1.80;1.77;;;18.70;99.90;;;;;;4989523;28;20462;-68
2023/08/18 05:23:31;;;;;;;3.47;3.20;;;18.70;99.90;;;;;;4985027;28;20545;-68
2023/08/18 05:26:00;;;;;;;2.10;2.00;;;18.60;99.90;;;;;;4988409;28;20494;-68
2023/08/18 05:28:29;;;;;;;3.13;3.03;;;18.70;99.90;;;;;;4991311;28;20874;-68
2023/08/18 05:30:56;;;;;;;3.07;2.90;;;18.70;99.90;;;;;;4990496;28;20533;-68
2023/08/18 05:33:23;;;;;;;2.37;2.27;;;18.70;99.90;;;;;;4988672;28;20871;-68
2023/08/18 05:35:50;;;;;;;2.70;2.40;;;18.60;99.90;;;;;;4987695;28;20894;-68
2023/08/18 05:38:17;;;;;;;2.70;2.60;;;18.50;99.90;;;;;;4987792;28;20455;-68
2023/08/18 05:40:46;;;;;;;2.07;1.97;;;18.50;99.90;;;;;;4990876;28;20446;-68
2023/08/18 05:43:16;;;;;;;5.43;3.53;;;18.40;99.90;;;;;;4988203;28;20462;-69
2023/08/18 05:45:44;;;;;;;2.00;1.90;;;18.30;99.90;;;;;;4991410;28;20454;-67
2023/08/18 05:48:11;;;;;;;2.07;1.97;;;18.40;99.90;;;;;;4987272;28;20461;-68
2023/08/18 05:50:38;;;;;;;2.83;2.63;;;18.60;99.90;;;;;;4990815;28;20520;-67
2023/08/18 05:53:05;;;;;;;1.80;1.70;;;18.70;99.90;;;;;;4985120;28;20973;-68
2023/08/18 05:55:33;;;;;;;1.90;1.80;;;18.80;99.90;;;;;;4990457;28;20466;-67
2023/08/18 05:58:01;;;;;;;2.97;2.80;;;18.80;99.90;;;;;;4990926;28;20466;-68
2023/08/18 06:00:31;;;;;;;3.00;2.90;;;18.80;99.90;;;;;;4991152;28;20529;-68
2023/08/18 06:02:58;;;;;;;2.43;2.30;;;18.70;99.90;;;;;;4983332;28;21179;-67
2023/08/18 06:05:28;;;;;;;2.70;2.50;;;18.70;99.90;;;;;;4988498;28;20455;-68
2023/08/18 06:07:54;;;;;;;3.87;3.67;;;18.80;99.90;;;;;;4985524;28;20513;-68
2023/08/18 06:10:21;;;;;;;4.93;4.47;;;19.00;99.90;;;;;;4989754;28;20506;-67
2023/08/18 06:12:49;;;;;;;2.60;2.50;;;19.10;99.90;;;;;;4989550;28;20458;-68
2023/08/18 06:15:17;;;;;;;3.50;3.27;;;19.30;99.90;;;;;;4987878;28;20994;-68
2023/08/18 06:17:45;;;;;;;4.10;3.90;;;19.30;99.90;;;;;;4990484;28;20839;-67
2023/08/18 06:20:13;;;;;;;3.20;3.10;;;19.20;99.90;;;;;;4986575;28;20459;-67
2023/08/18 06:22:40;;;;;;;4.23;4.00;;;19.10;99.90;;;;;;4983841;28;20541;-69
2023/08/18 06:25:08;;;;;;;3.93;3.73;;;19.20;99.90;;;;;;4989550;28;20819;-68
2023/08/18 06:27:35;;;;;;;3.47;3.17;;;19.30;99.90;;;;;;4989310;28;20471;-68
2023/08/18 06:30:03;;;;;;;5.67;5.27;;;19.20;99.90;;;;;;4987917;28;20589;-67
2023/08/18 06:32:30;;;;;;;5.03;4.73;;;19.50;99.90;;;;;;4975592;28;20565;-69
2023/08/18 06:34:58;;;;;;;3.57;3.47;;;19.60;99.90;;;;;;4985223;28;21065;-68
2023/08/18 06:37:25;;;;;;;3.70;3.60;;;19.70;99.90;;;;;;4984570;28;20459;-68
2023/08/18 06:39:53;;;;;;;5.53;5.33;;;19.90;99.90;;;;;;4989831;28;20465;-68
2023/08/18 06:42:20;;;;;;;5.13;4.93;;;19.90;99.90;;;;;;4986043;28;20565;-68
2023/08/18 06:44:47;;;;;;;5.80;5.60;;;19.90;99.90;;;;;;4986848;28;20485;-68
2023/08/18 06:47:14;;;;;;;6.70;6.30;;;20.10;99.90;;;;;;4986204;28;20473;-69
2023/08/18 06:49:41;;;;;;;4.93;4.83;;;20.00;99.90;;;;;;4986639;28;20918;-68
2023/08/18 06:52:09;;;;;;;11.00;8.40;;;20.10;99.90;;;;;;4987014;28;20828;-67
2023/08/18 06:54:36;;;;;;;7.00;5.50;;;20.00;99.90;;;;;;4989772;28;20493;-68
2023/08/18 06:57:03;;;;;;;5.10;4.90;;;19.70;99.90;;;;;;4984935;28;20467;-69
2023/08/18 06:59:31;;;;;;;5.10;4.90;;;19.70;99.90;;;;;;4981634;28;20586;-68
2023/08/18 07:01:58;;;;;;;7.00;6.30;;;19.60;99.90;;;;;;4987300;28;20824;-68
2023/08/18 07:04:25;;;;;;;6.27;5.03;;;19.60;99.90;;;;;;4989762;28;20493;-68
2023/08/18 07:06:52;;;;;;;5.03;4.73;;;19.40;99.90;;;;;;4986093;28;21005;-67
2023/08/18 07:09:20;;;;;;;6.50;6.10;;;19.50;99.90;;;;;;4975221;28;20502;-67
2023/08/18 07:11:47;;;;;;;4.57;4.40;;;19.70;99.90;;;;;;4982818;28;20491;-69
2023/08/18 07:14:14;;;;;;;6.87;6.23;;;19.90;99.90;;;;;;4981187;28;20481;-68
2023/08/18 07:16:41;;;;;;;6.00;5.70;;;19.90;99.90;;;;;;4985918;28;20889;-67
2023/08/18 07:19:08;;;;;;;6.07;5.50;;;19.90;99.90;;;;;;4985012;28;20521;-68
2023/08/18 07:21:35;;;;;;;24.73;6.20;;;20.10;99.90;;;;;;4983765;28;20506;-67
2023/08/18 07:24:03;;;;;;;10.07;9.30;;;20.20;99.90;;;;;;4987639;28;20459;-67
2023/08/18 07:26:32;;;;;;;7.23;6.73;;;20.20;99.90;;;;;;4984046;28;20459;-68
2023/08/18 07:29:00;;;;;;;7.00;6.70;;;20.10;99.90;;;;;;4986790;28;20501;-67
2023/08/18 07:31:26;;;;;;;7.67;7.30;;;20.20;99.90;;;;;;4983917;28;20502;-68
2023/08/18 07:33:54;;;;;;;9.73;7.43;;;20.40;99.90;;;;;;4985653;28;21399;-67
2023/08/18 07:36:21;;;;;;;6.40;6.20;;;20.50;99.90;;;;;;4986312;28;20812;-67
2023/08/18 07:38:48;;;;;;;6.27;6.07;;;20.50;99.90;;;;;;4970114;28;20582;-67
2023/08/18 07:41:15;;;;;;;8.40;8.00;;;20.70;99.90;;;;;;4976736;28;20629;-67
2023/08/18 07:43:43;;;;;;;7.00;6.80;;;20.80;99.90;;;;;;4980824;28;20806;-67
2023/08/18 07:46:11;;;;;;;7.53;7.33;;;20.80;99.90;;;;;;4979208;28;20458;-67
2023/08/18 07:48:38;;;;;;;11.30;9.20;;;21.20;99.90;;;;;;4983129;28;20485;-67
2023/08/18 07:51:05;;;;;;;8.37;8.07;;;21.20;99.90;;;;;;4985298;28;20482;-67
2023/08/18 07:53:32;;;;;;;10.13;9.63;;;21.30;99.90;;;;;;4981631;28;20506;-67
2023/08/18 07:55:59;;;;;;;8.60;8.30;;;21.00;99.90;;;;;;4961969;28;20975;-68
2023/08/18 07:58:26;;;;;;;7.60;7.40;;;21.10;99.90;;;;;;4966305;28;20471;-67
2023/08/18 08:00:56;;;;;;;9.43;8.73;;;21.30;99.90;;;;;;4966770;28;20469;-67
2023/08/18 08:03:23;;;;;;;8.37;8.07;;;21.40;99.90;;;;;;4965483;28;20467;-69
2023/08/18 08:05:50;;;;;;;16.00;14.53;;;21.50;99.90;;;;;;4958832;28;20558;-68
2023/08/18 08:08:17;;;;;;;12.33;11.47;;;21.80;99.90;;;;;;4963378;28;20542;-67
2023/08/18 08:10:44;;;;;;;8.50;8.27;;;21.60;99.90;;;;;;4966104;28;20483;-67
2023/08/18 08:13:11;;;;;;;10.40;10.00;;;21.50;99.90;;;;;;4961171;28;20464;-69
2023/08/18 08:15:37;;;;;;;10.50;10.13;;;21.80;99.90;;;;;;4964489;28;20479;-67
2023/08/18 08:18:06;;;;;;;9.50;9.20;;;21.90;99.90;;;;;;4959557;28;20468;-67
2023/08/18 08:20:34;;;;;;;10.50;10.10;;;22.20;99.90;;;;;;4957374;28;20581;-67
2023/08/18 08:23:02;;;;;;;11.37;10.77;;;22.40;99.90;;;;;;4967967;28;20478;-67
2023/08/18 08:25:29;;;;;;;11.57;11.00;;;22.60;99.90;;;;;;4964343;28;20470;-67
2023/08/18 08:27:58;;;;;;;10.80;10.50;;;22.70;99.90;;;;;;4965307;28;20490;-67
2023/08/18 08:30:26;;;;;;;12.40;11.90;;;22.80;99.90;;;;;;4962734;28;20459;-67
2023/08/18 08:32:52;;;;;;;12.27;11.77;;;22.90;99.90;;;;;;4958905;28;20839;-67
2023/08/18 08:35:21;;;;;;;11.00;10.70;;;22.90;99.90;;;;;;4966545;28;20467;-67
2023/08/18 08:37:48;;;;;;;10.63;10.33;;;22.90;99.90;;;;;;4962595;28;20475;-67
2023/08/18 08:40:18;;;;;;;11.17;10.87;;;23.00;99.90;;;;;;4961475;28;20463;-67
2023/08/18 08:42:46;;;;;;;11.40;11.10;;;23.20;99.90;;;;;;4961119;28;20468;-67
2023/08/18 08:45:13;;;;;;;11.77;11.47;;;23.40;99.90;;;;;;4962227;28;20456;-67
2023/08/18 08:47:42;;;;;;;12.37;11.97;;;23.90;99.90;;;;;;4962555;28;20456;-69
2023/08/18 08:50:10;;;;;;;11.87;11.57;;;24.40;99.90;;;;;;4960476;28;20510;-68
2023/08/18 08:52:39;;;;;;;12.60;12.20;;;24.70;99.90;;;;;;4967990;28;20615;-69
2023/08/18 08:55:08;;;;;;;12.67;12.30;;;24.40;99.90;;;;;;4980349;28;20533;-67
2023/08/18 08:57:35;;;;;;;12.93;12.53;;;24.30;99.90;;;;;;4984364;28;20478;-67
2023/08/18 09:00:02;;;;;;;12.50;12.10;;;24.40;99.90;;;;;;4987702;28;20867;-67
2023/08/18 09:02:30;;;;;;;12.60;12.20;;;24.20;99.90;;;;;;4984929;28;20961;-69
2023/08/18 09:05:00;;;;;;;12.37;12.07;;;24.50;99.90;;;;;;4986863;28;20474;-66
2023/08/18 09:07:28;;;;;;;13.43;13.00;;;24.50;99.90;;;;;;4986820;28;20852;-66
2023/08/18 09:09:57;;;;;;;12.50;12.20;;;24.80;99.90;;;;;;4988550;28;20553;-69
2023/08/18 09:12:28;;;;;;;12.00;11.70;;;24.90;99.90;;;;;;4984765;28;20501;-67
2023/08/18 09:14:56;;;;;;;12.30;12.00;;;25.40;99.90;;;;;;4984959;28;20529;-67
2023/08/18 09:17:23;;;;;;;12.20;11.90;;;25.60;99.90;;;;;;4986486;28;20896;-67
2023/08/18 09:19:50;;;;;;;12.40;12.10;;;25.40;99.90;;;;;;4981642;28;20515;-69
2023/08/18 09:22:21;;;;;;;12.37;12.07;;;25.40;99.90;;;;;;4984965;28;20512;-67
2023/08/18 09:24:50;;;;;;;12.27;11.97;;;26.00;99.90;;;;;;4985049;28;20510;-67
2023/08/18 09:27:20;;;;;;;12.40;12.10;;;26.50;99.90;;;;;;4985787;28;20458;-67
2023/08/18 09:29:50;;;;;;;12.83;12.43;;;26.40;99.90;;;;;;4983041;28;20463;-66
2023/08/18 09:32:17;;;;;;;13.07;12.67;;;26.70;99.90;;;;;;4987183;28;20917;-67
2023/08/18 09:34:45;;;;;;;13.13;12.73;;;26.90;99.90;;;;;;4979154;28;20470;-68
2023/08/18 09:37:11;;;;;;;13.10;12.70;;;27.00;99.90;;;;;;4978994;28;20481;-69
2023/08/18 09:39:38;;;;;;;12.70;12.37;;;27.20;99.90;;;;;;4987462;28;20474;-69
2023/08/18 09:42:08;;;;;;;13.50;13.10;;;27.40;99.90;;;;;;4984130;28;20458;-66
2023/08/18 09:44:37;;;;;;;13.23;12.83;;;27.50;99.90;;;;;;4985757;28;20454;-67
2023/08/18 09:47:06;;;;;;;13.50;13.10;;;27.80;99.90;;;;;;4982987;28;20463;-66
2023/08/18 09:49:36;;;;;;;14.10;13.70;;;28.00;99.90;;;;;;4985568;28;20474;-66
2023/08/18 09:52:04;;;;;;;13.80;13.40;;;28.40;99.90;;;;;;4989852;28;20674;-66
2023/08/18 09:54:35;;;;;;;13.53;13.13;;;29.00;99.90;;;;;;4972857;28;20488;-67
2023/08/18 09:57:12;;;;;;;13.53;13.13;;;29.50;99.90;;;;;;4969603;28;20474;-67
2023/08/18 09:59:44;;;;;;;13.93;13.53;;;30.20;99.90;;;;;;4967063;28;20467;-67
2023/08/18 10:02:19;;;;;;;13.90;13.50;;;30.80;99.90;;;;;;4965876;28;20499;-66
2023/08/18 10:04:49;;;;;;;13.67;13.27;;;31.10;99.90;;;;;;4967015;28;20775;-67
2023/08/18 10:07:17;;;;;;;13.50;13.10;;;31.40;99.90;;;;;;4966693;28;20455;-68
2023/08/18 10:09:46;;;;;;;13.67;13.27;;;31.70;99.90;;;;;;4962507;28;20468;-67
2023/08/18 10:12:14;;;;;;;13.67;13.27;;;31.90;99.90;;;;;;4963773;28;20490;-66
2023/08/18 10:14:45;;;;;;;14.00;13.60;;;30.50;99.90;;;;;;4966665;28;21014;-67
2023/08/18 10:17:14;;;;;;;13.80;13.40;;;31.10;99.90;;;;;;4967366;28;20467;-67
2023/08/18 10:19:49;;;;;;;13.10;12.70;;;31.10;99.90;;;;;;4963658;28;20537;-67
2023/08/18 10:22:17;;;;;;;13.30;12.90;;;30.80;99.90;;;;;;4965016;28;20467;-66
2023/08/18 10:24:48;;;;;;;13.20;12.80;;;30.80;99.90;;;;;;4962976;28;21259;-67
2023/08/18 10:27:30;;;;;;;13.20;12.80;;;30.40;99.90;;;;;;4963161;28;20460;-67
2023/08/18 10:30:00;;;;;;;13.60;13.20;;;30.30;99.90;;;;;;4964782;28;20964;-66
2023/08/18 10:32:27;;;;;;;13.00;12.60;;;31.40;99.90;;;;;;4964759;28;20491;-67
2023/08/18 10:35:14;;;;;;;13.40;13.00;;;31.80;99.90;;;;;;4965148;28;20471;-67
2023/08/18 10:37:43;;;;;;;13.40;13.00;;;32.50;99.90;;;;;;4968119;28;20463;-66
2023/08/18 10:40:21;;;;;;;13.63;13.23;;;32.50;99.90;;;;;;4962029;28;20471;-68
2023/08/18 10:42:48;;;;;;;13.80;13.40;;;32.40;99.90;;;;;;4962256;28;20471;-67
2023/08/18 10:45:25;;;;;;;13.60;13.20;;;31.90;99.90;;;;;;4963530;28;20491;-67
2023/08/18 10:47:52;;;;;;;13.50;13.10;;;32.30;99.90;;;;;;4962403;28;20471;-66
2023/08/18 10:50:21;;;;;;;13.60;13.20;;;32.10;99.90;;;;;;4963519;28;20558;-67
2023/08/18 10:52:52;;;;;;;13.60;13.20;;;32.00;99.90;;;;;;4964107;28;20487;-68
2023/08/18 10:55:18;;;;;;;13.20;12.80;;;32.10;99.90;;;;;;4986082;28;20585;-66
2023/08/18 10:57:46;;;;;;;13.70;13.30;;;32.60;99.90;;;;;;4979811;28;20472;-67
2023/08/18 11:00:17;;;;;;;13.70;13.30;;;32.90;99.90;;;;;;4981074;28;20963;-66
2023/08/18 11:02:47;;;;;;;13.60;13.20;;;32.90;99.90;;;;;;4981513;28;20545;-67
2023/08/18 11:05:14;;;;;;;13.90;13.50;;;33.70;99.90;;;;;;4982660;28;20474;-67
2023/08/18 11:07:42;;;;;;;13.60;13.20;;;34.30;99.90;;;;;;4980966;28;21068;-66
2023/08/18 11:10:16;;;;;;;13.80;13.40;;;33.90;99.90;;;;;;4985202;28;21392;-68
2023/08/18 11:12:43;;;;;;;13.20;12.80;;;33.50;99.90;;;;;;4983779;28;21544;-68
2023/08/18 11:15:11;;;;;;;13.83;13.43;;;32.90;99.90;;;;;;4988292;28;20505;-66
2023/08/18 11:17:38;;;;;;;14.00;13.60;;;33.00;99.90;;;;;;4983484;28;20552;-67
2023/08/18 11:20:08;;;;;;;13.83;13.43;;;32.80;99.90;;;;;;4983441;28;20909;-67
2023/08/18 11:22:37;;;;;;;13.70;13.30;;;33.00;99.90;;;;;;4984981;28;20455;-66
2023/08/18 11:25:05;;;;;;;13.97;13.57;;;33.60;99.90;;;;;;4984241;28;20459;-69
2023/08/18 11:27:33;;;;;;;13.70;13.30;;;34.40;99.90;;;;;;4987375;28;20458;-67
2023/08/18 11:30:00;;;;;;;14.27;13.87;;;34.10;99.90;;;;;;4985727;28;20462;-68
2023/08/18 11:32:28;;;;;;;14.40;14.00;;;34.60;99.90;;;;;;4983597;28;20490;-67
2023/08/18 11:34:56;;;;;;;12.87;12.57;;;34.10;99.90;;;;;;4982989;28;20506;-66
2023/08/18 11:37:26;;;;;;;12.90;12.60;;;34.70;99.90;;;;;;4986051;28;20463;-67
2023/08/18 11:39:54;;;;;;;12.80;12.50;;;35.30;99.90;;;;;;4985679;28;20756;-65
2023/08/18 11:42:21;;;;;;;12.57;12.27;;;35.40;99.90;;;;;;4987174;28;20446;-66
2023/08/18 11:44:50;;;;;;;12.00;11.70;;;35.60;99.90;;;;;;4983896;28;20462;-67
2023/08/18 11:47:17;;;;;;;12.30;12.00;;;35.80;99.90;;;;;;4985684;28;20463;-67
2023/08/18 11:49:45;;;;;;;13.67;13.27;;;35.10;99.90;;;;;;4985345;28;20902;-67
2023/08/18 11:52:13;;;;;;;12.50;12.20;;;34.80;99.90;;;;;;4980238;28;20832;-66
2023/08/18 11:54:42;;;;;;;12.90;12.60;;;34.50;99.90;;;;;;4979336;28;21031;-67
2023/08/18 11:57:13;;;;;;;11.90;11.60;;;34.90;99.90;;;;;;4985610;28;20455;-66
2023/08/18 11:59:46;;;;;;;12.53;12.23;;;35.40;99.90;;;;;;4976569;28;20470;-67
2023/08/18 12:02:21;;;;;;;12.63;12.33;;;35.40;99.90;;;;;;4985162;28;20549;-67
2023/08/18 12:04:51;;;;;;;12.50;12.20;;;35.80;99.90;;;;;;4985836;28;20502;-67
2023/08/18 12:07:18;;;;;;;12.90;12.60;;;36.20;99.90;;;;;;4985326;28;20467;-68
2023/08/18 12:09:47;;;;;;;12.87;12.57;;;36.60;99.90;;;;;;4987051;28;20946;-67
2023/08/18 12:12:15;;;;;;;13.00;12.60;;;35.70;99.90;;;;;;4983885;28;21039;-66
2023/08/18 12:14:42;;;;;;;13.43;13.03;;;35.50;99.90;;;;;;4986735;28;20494;-67
2023/08/18 12:17:10;;;;;;;13.20;12.83;;;35.60;99.90;;;;;;4987412;28;20784;-67
2023/08/18 12:19:38;;;;;;;12.87;12.57;;;35.90;99.90;;;;;;4982681;28;20466;-66
2023/08/18 12:22:05;;;;;;;13.30;12.90;;;36.30;99.90;;;;;;4983260;28;20470;-67
2023/08/18 12:24:32;;;;;;;12.67;12.37;;;36.90;99.90;;;;;;4983559;28;20957;-68
2023/08/18 12:27:00;;;;;;;13.40;13.00;;;37.40;99.90;;;;;;4980038;28;20473;-68
2023/08/18 12:29:27;;;;;;;13.03;12.70;;;38.00;99.90;;;;;;4980855;28;20463;-68
2023/08/18 12:31:53;;;;;;;13.20;12.80;;;38.30;99.90;;;;;;4983707;28;20888;-67
2023/08/18 12:34:20;;;;;;;12.60;12.30;;;38.60;99.90;;;;;;4985241;28;20578;-67
2023/08/18 12:36:47;;;;;;;13.40;13.00;;;38.60;99.90;;;;;;4984196;28;20456;-67
2023/08/18 12:39:16;;;;;;;12.67;12.37;;;38.30;99.90;;;;;;4981644;28;20494;-67
2023/08/18 12:41:42;;;;;;;13.03;12.73;;;38.20;99.90;;;;;;4987122;28;20459;-68